Time;durP1;ratioP1;P1;durP2;ratioP2;P2;SDS_P1;SDS_P2;PMS_P1;PMS_P2;Temp;Humidity;BMP_temperature;BMP_pressure;BME280_temperature;BME280_humidity;BME280_pressure;Samples;Min_cycle;Max_cycle;Signal;HPM_P1;HPM_P2
2021/05/23 00:01:06;;;;;;;5.15;1.80;;;11.50;61.90;;;;;;4878364;29;20093;-67
2021/05/23 00:03:33;;;;;;;3.28;1.50;;;11.50;62.20;;;;;;4873405;29;20046;-66
2021/05/23 00:05:59;;;;;;;7.03;2.00;;;11.40;61.90;;;;;;4880551;29;20036;-66
2021/05/23 00:08:26;;;;;;;5.18;1.92;;;11.40;62.20;;;;;;4867422;29;20101;-66
2021/05/23 00:11:10;;;;;;;3.85;1.60;;;11.40;61.10;;;;;;4883959;29;20085;-67
2021/05/23 00:13:47;;;;;;;5.75;2.00;;;11.40;60.80;;;;;;4877538;29;20026;-67
2021/05/23 00:16:16;;;;;;;4.55;2.10;;;11.30;61.40;;;;;;4869501;29;20030;-67
2021/05/23 00:18:45;;;;;;;9.88;2.58;;;11.30;61.90;;;;;;4867697;29;20034;-66
2021/05/23 00:21:13;;;;;;;6.63;1.77;;;11.30;62.00;;;;;;4876424;29;20033;-67
2021/05/23 00:23:38;;;;;;;7.63;2.47;;;11.20;63.00;;;;;;4880501;29;20029;-67
2021/05/23 00:26:04;;;;;;;6.47;2.10;;;11.20;61.70;;;;;;4867518;29;20125;-67
2021/05/23 00:28:31;;;;;;;5.32;1.90;;;11.20;64.20;;;;;;4867118;29;20033;-67
2021/05/23 00:30:57;;;;;;;7.32;1.80;;;11.10;64.50;;;;;;4868480;29;20065;-67
2021/05/23 00:33:23;;;;;;;7.25;2.38;;;11.10;65.50;;;;;;4869668;29;20449;-66
2021/05/23 00:35:49;;;;;;;5.65;1.75;;;11.00;67.30;;;;;;4869131;29;20033;-67
2021/05/23 00:38:15;;;;;;;6.18;2.05;;;11.00;66.60;;;;;;4877364;29;20088;-67
2021/05/23 00:40:41;;;;;;;7.13;1.88;;;11.00;65.90;;;;;;4883941;29;20063;-66
2021/05/23 00:43:12;;;;;;;6.68;2.33;;;11.00;66.90;;;;;;4872846;29;20026;-67
2021/05/23 00:45:39;;;;;;;5.95;2.05;;;10.90;67.30;;;;;;4877416;29;20108;-66
2021/05/23 00:48:05;;;;;;;4.50;1.88;;;10.90;67.30;;;;;;4867038;29;20540;-67
2021/05/23 00:50:31;;;;;;;6.15;2.20;;;10.90;67.30;;;;;;4866859;29;20025;-66
2021/05/23 00:53:01;;;;;;;4.45;2.20;;;10.80;66.30;;;;;;4865941;29;20025;-67
2021/05/23 00:55:27;;;;;;;6.00;1.92;;;10.80;67.30;;;;;;4866922;29;20034;-67
2021/05/23 00:57:53;;;;;;;5.43;2.17;;;10.80;66.30;;;;;;4867673;29;20393;-67
2021/05/23 01:00:45;;;;;;;5.75;2.25;;;10.80;66.50;;;;;;4866582;29;20026;-66
2021/05/23 01:03:26;;;;;;;6.95;2.15;;;10.80;67.10;;;;;;4879052;29;20132;-66
2021/05/23 01:05:59;;;;;;;6.20;2.45;;;10.80;67.20;;;;;;4872399;29;20092;-67
2021/05/23 01:08:25;;;;;;;5.25;1.80;;;10.70;66.80;;;;;;4866490;29;20033;-66
2021/05/23 01:10:53;;;;;;;9.10;1.88;;;10.70;67.00;;;;;;4880123;29;20033;-66
2021/05/23 01:13:35;;;;;;;4.72;2.25;;;10.70;66.70;;;;;;4866582;29;20082;-66
2021/05/23 01:16:06;;;;;;;5.45;2.20;;;10.60;67.50;;;;;;4874471;29;20057;-67
2021/05/23 01:18:50;;;;;;;5.55;2.08;;;10.70;65.90;;;;;;4866639;29;20025;-67
2021/05/23 01:21:19;;;;;;;4.88;1.90;;;10.60;66.50;;;;;;4867378;29;20037;-66
2021/05/23 01:23:47;;;;;;;5.10;1.80;;;10.60;66.20;;;;;;4878263;29;20184;-67
2021/05/23 01:26:15;;;;;;;3.03;1.38;;;10.60;65.60;;;;;;4877298;29;20093;-67
2021/05/23 01:28:48;;;;;;;5.18;1.80;;;10.60;65.30;;;;;;4866144;29;20080;-67
2021/05/23 01:31:17;;;;;;;7.82;2.05;;;10.60;66.30;;;;;;4866078;29;20029;-67
2021/05/23 01:33:43;;;;;;;4.30;2.08;;;10.60;66.90;;;;;;4866201;29;20033;-67
2021/05/23 01:36:10;;;;;;;2.92;1.38;;;10.60;67.40;;;;;;4873041;29;20033;-67
2021/05/23 01:38:36;;;;;;;3.78;1.50;;;10.50;66.30;;;;;;4865825;29;20025;-67
2021/05/23 01:41:09;;;;;;;6.35;1.50;;;10.60;65.80;;;;;;4870246;29;20025;-67
2021/05/23 01:43:36;;;;;;;3.97;1.52;;;10.60;65.10;;;;;;4871716;29;20055;-66
2021/05/23 01:46:03;;;;;;;6.03;1.60;;;10.50;64.50;;;;;;4871878;29;20572;-67
2021/05/23 01:48:32;;;;;;;7.35;1.60;;;10.50;65.30;;;;;;4877913;29;20025;-67
2021/05/23 01:50:58;;;;;;;4.47;1.50;;;10.50;64.40;;;;;;4882804;29;20077;-67
2021/05/23 01:53:24;;;;;;;4.30;1.50;;;10.50;64.20;;;;;;4880208;29;20025;-67
2021/05/23 01:55:49;;;;;;;5.13;1.52;;;10.40;64.20;;;;;;4877778;29;20022;-67
2021/05/23 01:58:15;;;;;;;5.00;1.58;;;10.40;64.20;;;;;;4867728;29;20049;-67
2021/05/23 02:00:50;;;;;;;3.20;1.30;;;10.40;64.00;;;;;;4882277;29;20041;-67
2021/05/23 02:03:18;;;;;;;4.05;1.60;;;10.40;62.90;;;;;;4881131;29;20034;-67
2021/05/23 02:05:50;;;;;;;2.50;1.15;;;10.40;62.40;;;;;;4875430;29;20030;-66
2021/05/23 02:08:18;;;;;;;2.95;1.40;;;10.40;62.00;;;;;;4867773;29;20032;-66
2021/05/23 02:10:45;;;;;;;5.38;1.70;;;10.40;61.60;;;;;;4883633;29;20426;-67
2021/05/23 02:13:11;;;;;;;2.95;1.40;;;10.30;61.10;;;;;;4866427;29;20052;-67
2021/05/23 02:15:38;;;;;;;3.83;1.33;;;10.30;60.70;;;;;;4864880;29;20037;-66
2021/05/23 02:18:05;;;;;;;5.20;1.15;;;10.30;60.60;;;;;;4865239;29;20022;-67
2021/05/23 02:20:32;;;;;;;3.05;1.10;;;10.30;60.50;;;;;;4873714;29;20021;-67
2021/05/23 02:23:03;;;;;;;5.30;1.67;;;10.20;60.00;;;;;;4875557;29;20061;-66
2021/05/23 02:25:30;;;;;;;5.00;1.58;;;10.20;59.90;;;;;;4865483;29;20026;-66
2021/05/23 02:28:01;;;;;;;2.70;1.23;;;10.20;59.80;;;;;;4876904;29;20024;-67
2021/05/23 02:30:29;;;;;;;5.10;1.30;;;10.10;60.60;;;;;;4864910;29;20032;-67
2021/05/23 02:32:57;;;;;;;4.05;1.67;;;10.10;60.10;;;;;;4872672;29;20049;-67
2021/05/23 02:35:25;;;;;;;4.70;1.30;;;10.10;60.40;;;;;;4873521;29;20097;-66
2021/05/23 02:37:52;;;;;;;4.32;1.40;;;10.10;60.10;;;;;;4872042;29;20086;-67
2021/05/23 02:40:20;;;;;;;4.38;1.42;;;10.10;60.80;;;;;;4867136;29;20022;-66
2021/05/23 02:42:47;;;;;;;5.82;2.85;;;10.10;61.70;;;;;;4867747;29;20037;-67
2021/05/23 02:45:15;;;;;;;5.63;1.73;;;10.00;64.20;;;;;;4870685;29;20030;-67
2021/05/23 02:47:43;;;;;;;5.30;1.50;;;10.00;63.50;;;;;;4866980;29;20424;-67
2021/05/23 02:50:13;;;;;;;3.20;1.27;;;10.00;62.20;;;;;;4864977;29;20029;-67
2021/05/23 02:52:39;;;;;;;4.07;1.38;;;10.00;62.10;;;;;;4864605;29;20527;-67
2021/05/23 02:55:06;;;;;;;6.32;1.52;;;10.00;61.90;;;;;;4864793;29;20026;-67
2021/05/23 02:57:37;;;;;;;5.47;1.40;;;9.90;61.40;;;;;;4867276;29;20036;-66
2021/05/23 03:00:05;;;;;;;4.40;1.75;;;9.90;61.60;;;;;;4866001;29;20022;-66
2021/05/23 03:02:31;;;;;;;4.53;1.60;;;9.90;60.50;;;;;;4847911;29;20037;-67
2021/05/23 03:04:57;;;;;;;4.38;1.90;;;9.90;61.10;;;;;;4873864;29;20077;-67
2021/05/23 03:07:22;;;;;;;5.00;1.20;;;9.90;60.60;;;;;;4873057;29;20085;-67
2021/05/23 03:09:49;;;;;;;2.28;1.00;;;9.90;61.00;;;;;;4870778;29;20047;-67
2021/05/23 03:12:16;;;;;;;3.05;1.27;;;9.80;60.10;;;;;;4870050;29;20037;-66
2021/05/23 03:14:42;;;;;;;3.17;1.33;;;9.80;60.40;;;;;;4865493;29;20482;-67
2021/05/23 03:17:09;;;;;;;4.13;1.30;;;9.80;60.40;;;;;;4868228;29;20026;-67
2021/05/23 03:19:38;;;;;;;3.30;1.27;;;9.70;59.90;;;;;;4878966;29;20037;-67
2021/05/23 03:22:06;;;;;;;3.20;1.65;;;9.70;59.90;;;;;;4869273;29;20504;-66
2021/05/23 03:24:34;;;;;;;4.00;1.23;;;9.70;60.70;;;;;;4867374;29;20042;-66
2021/05/23 03:27:00;;;;;;;4.47;1.45;;;9.70;60.70;;;;;;4868432;29;20033;-67
2021/05/23 03:29:26;;;;;;;3.83;1.25;;;9.70;61.40;;;;;;4872722;29;20481;-67
2021/05/23 03:31:52;;;;;;;4.03;1.52;;;9.60;62.40;;;;;;4867836;29;20036;-67
2021/05/23 03:34:18;;;;;;;3.92;1.30;;;9.60;62.90;;;;;;4868280;29;20029;-67
2021/05/23 03:36:44;;;;;;;7.00;2.30;;;9.60;63.40;;;;;;4868025;29;20029;-66
2021/05/23 03:39:09;;;;;;;5.95;1.65;;;9.60;64.50;;;;;;4868154;29;20619;-67
2021/05/23 03:41:35;;;;;;;6.93;2.47;;;9.70;66.40;;;;;;4868110;29;20033;-67
2021/05/23 03:44:01;;;;;;;5.07;1.50;;;9.60;66.20;;;;;;4879871;29;20519;-67
2021/05/23 03:46:27;;;;;;;7.10;2.00;;;9.60;69.00;;;;;;4868091;29;20030;-66
2021/05/23 03:48:53;;;;;;;4.95;1.50;;;9.60;68.70;;;;;;4869386;29;20058;-67
2021/05/23 03:51:19;;;;;;;7.78;2.00;;;9.60;67.60;;;;;;4868117;29;20061;-66
2021/05/23 03:53:44;;;;;;;5.88;1.55;;;9.60;67.20;;;;;;4867633;29;20033;-67
2021/05/23 03:56:10;;;;;;;4.82;1.60;;;9.60;67.50;;;;;;4855615;29;20176;-67
2021/05/23 03:58:36;;;;;;;4.75;1.55;;;9.60;68.90;;;;;;4886062;29;20535;-66
2021/05/23 04:01:02;;;;;;;4.93;1.75;;;9.60;69.00;;;;;;4876252;29;20450;-66
2021/05/23 04:03:29;;;;;;;3.53;1.50;;;9.60;68.30;;;;;;4867376;29;20040;-67
2021/05/23 04:05:57;;;;;;;4.30;1.35;;;9.60;67.00;;;;;;4867772;29;20049;-66
2021/05/23 04:08:23;;;;;;;4.88;1.60;;;9.60;66.80;;;;;;4876278;29;20061;-67
2021/05/23 04:11:12;;;;;;;5.68;1.60;;;9.60;67.30;;;;;;4882853;29;20036;-66
2021/05/23 04:13:39;;;;;;;5.40;1.90;;;9.60;68.10;;;;;;4867532;29;20029;-67
2021/05/23 04:16:06;;;;;;;7.25;1.60;;;9.60;68.00;;;;;;4867356;29;20512;-67
2021/05/23 04:18:32;;;;;;;7.00;1.50;;;9.60;67.70;;;;;;4868907;29;20497;-67
2021/05/23 04:20:58;;;;;;;4.53;2.42;;;9.60;67.90;;;;;;4867707;29;20033;-67
2021/05/23 04:23:24;;;;;;;4.47;1.48;;;9.60;67.80;;;;;;4868396;29;20028;-67
2021/05/23 04:25:51;;;;;;;6.25;1.40;;;9.60;66.70;;;;;;4868791;29;20071;-66
2021/05/23 04:28:17;;;;;;;5.45;1.80;;;9.60;66.00;;;;;;4877820;29;20090;-66
2021/05/23 04:30:43;;;;;;;5.05;1.50;;;9.50;65.80;;;;;;4850739;29;20053;-67
2021/05/23 04:33:09;;;;;;;3.65;1.15;;;9.60;65.40;;;;;;4865980;29;20022;-67
2021/05/23 04:35:35;;;;;;;6.35;1.35;;;9.60;64.90;;;;;;4871284;29;20104;-67
2021/05/23 04:38:01;;;;;;;2.40;1.05;;;9.60;64.70;;;;;;4870836;29;20060;-67
2021/05/23 04:40:28;;;;;;;5.30;1.67;;;9.60;64.60;;;;;;4867228;29;20025;-67
2021/05/23 04:42:54;;;;;;;4.15;1.20;;;9.50;65.60;;;;;;4873804;29;20048;-67
2021/05/23 04:45:21;;;;;;;4.22;1.63;;;9.50;65.00;;;;;;4882301;29;20033;-67
2021/05/23 04:47:46;;;;;;;3.15;1.15;;;9.50;64.10;;;;;;4866623;29;20030;-67
2021/05/23 04:50:13;;;;;;;3.75;1.60;;;9.60;63.80;;;;;;4867041;29;20044;-67
2021/05/23 04:52:39;;;;;;;3.30;1.30;;;9.60;63.60;;;;;;4868968;29;20060;-66
2021/05/23 04:55:07;;;;;;;4.05;1.85;;;9.60;63.90;;;;;;4874323;29;20496;-67
2021/05/23 04:57:33;;;;;;;2.72;1.20;;;9.60;64.30;;;;;;4876804;29;20149;-67
2021/05/23 04:59:59;;;;;;;3.25;1.80;;;9.70;64.70;;;;;;4866668;29;20029;-67
2021/05/23 05:02:25;;;;;;;3.08;1.10;;;9.70;64.90;;;;;;4867158;29;20029;-67
2021/05/23 05:04:51;;;;;;;4.50;1.23;;;9.70;64.70;;;;;;4866535;29;20086;-67
2021/05/23 05:07:17;;;;;;;4.45;1.80;;;9.80;65.10;;;;;;4866461;29;20049;-67
2021/05/23 05:09:43;;;;;;;4.95;2.25;;;9.80;65.60;;;;;;4873825;29;20025;-67
2021/05/23 05:12:09;;;;;;;4.60;1.85;;;9.80;65.80;;;;;;4866487;29;20058;-67
2021/05/23 05:14:35;;;;;;;3.92;1.60;;;9.80;66.60;;;;;;4867598;29;20221;-67
2021/05/23 05:17:01;;;;;;;3.60;2.20;;;9.80;66.90;;;;;;4866401;29;20029;-67
2021/05/23 05:19:27;;;;;;;4.88;1.77;;;9.80;66.90;;;;;;4874037;29;20025;-66
2021/05/23 05:21:53;;;;;;;5.45;1.60;;;9.80;66.00;;;;;;4865962;29;20465;-67
2021/05/23 05:24:19;;;;;;;4.40;1.50;;;9.80;65.70;;;;;;4872456;29;20021;-67
2021/05/23 05:26:45;;;;;;;6.18;1.40;;;9.80;65.80;;;;;;4869851;29;20041;-67
2021/05/23 05:29:11;;;;;;;6.03;1.77;;;9.80;66.90;;;;;;4871775;29;20032;-67
2021/05/23 05:31:37;;;;;;;6.47;2.10;;;9.80;68.60;;;;;;4871399;29;20113;-67
2021/05/23 05:34:03;;;;;;;4.72;1.70;;;9.80;69.60;;;;;;4865996;29;20031;-67
2021/05/23 05:36:29;;;;;;;7.78;2.38;;;9.90;70.10;;;;;;4865685;29;20022;-67
2021/05/23 05:38:55;;;;;;;6.38;1.70;;;9.90;70.60;;;;;;4865598;29;20032;-67
2021/05/23 05:41:21;;;;;;;8.40;2.15;;;9.90;70.50;;;;;;4866096;29;20053;-67
2021/05/23 05:43:48;;;;;;;6.32;1.80;;;9.90;70.30;;;;;;4873112;29;20037;-67
2021/05/23 05:46:14;;;;;;;4.78;2.78;;;9.90;70.90;;;;;;4867676;29;20036;-67
2021/05/23 05:48:40;;;;;;;7.82;3.30;;;9.90;71.40;;;;;;4867021;29;20081;-67
2021/05/23 05:51:06;;;;;;;8.05;1.92;;;10.00;71.10;;;;;;4865785;29;20124;-67
2021/05/23 05:53:32;;;;;;;7.97;2.03;;;10.00;70.90;;;;;;4866523;29;20401;-67
2021/05/23 05:55:58;;;;;;;7.50;1.63;;;10.00;70.70;;;;;;4867691;29;20026;-67
2021/05/23 05:58:24;;;;;;;6.60;1.42;;;10.10;70.70;;;;;;4874008;29;20032;-67
2021/05/23 06:00:50;;;;;;;6.60;1.90;;;10.10;71.20;;;;;;4867757;29;20024;-67
2021/05/23 06:03:16;;;;;;;4.95;1.63;;;10.20;72.50;;;;;;4865629;29;20057;-68
2021/05/23 06:05:41;;;;;;;6.82;2.17;;;10.20;72.40;;;;;;4877869;29;20497;-67
2021/05/23 06:08:07;;;;;;;3.50;1.58;;;10.30;72.80;;;;;;4865285;29;20030;-67
2021/05/23 06:10:33;;;;;;;6.72;1.83;;;10.30;72.50;;;;;;4880161;29;20430;-67
2021/05/23 06:13:00;;;;;;;6.45;1.83;;;10.30;72.20;;;;;;4866904;29;20499;-67
2021/05/23 06:15:26;;;;;;;7.80;1.80;;;10.30;72.30;;;;;;4877306;29;20112;-67
2021/05/23 06:17:52;;;;;;;8.90;1.80;;;10.30;72.90;;;;;;4865461;29;20064;-67
2021/05/23 06:20:18;;;;;;;5.95;1.88;;;10.40;72.90;;;;;;4865311;29;20405;-67
2021/05/23 06:22:43;;;;;;;4.95;1.70;;;10.40;72.50;;;;;;4865432;29;20512;-67
2021/05/23 06:25:10;;;;;;;6.82;1.95;;;10.50;73.00;;;;;;4863610;29;20034;-67
2021/05/23 06:27:36;;;;;;;7.32;1.73;;;10.50;73.30;;;;;;4874158;29;20539;-67
2021/05/23 06:30:04;;;;;;;4.75;1.65;;;10.60;72.20;;;;;;4864888;29;20026;-67
2021/05/23 06:32:29;;;;;;;6.80;1.60;;;10.70;72.20;;;;;;4865081;29;20037;-67
2021/05/23 06:34:55;;;;;;;4.72;1.83;;;10.70;71.70;;;;;;4867026;29;20025;-68
2021/05/23 06:37:21;;;;;;;6.90;1.60;;;10.70;71.90;;;;;;4873143;29;20404;-68
2021/05/23 06:39:47;;;;;;;6.22;2.50;;;10.90;72.00;;;;;;4864609;29;20030;-68
2021/05/23 06:42:13;;;;;;;6.72;1.70;;;11.00;72.40;;;;;;4873530;29;20097;-68
2021/05/23 06:44:39;;;;;;;4.82;1.50;;;11.20;72.50;;;;;;4871804;29;20421;-68
2021/05/23 06:47:04;;;;;;;5.97;2.00;;;11.50;72.80;;;;;;4873122;29;20033;-68
2021/05/23 06:49:30;;;;;;;4.38;2.00;;;11.70;72.60;;;;;;4871633;29;20053;-68
2021/05/23 06:51:56;;;;;;;4.70;1.40;;;11.80;72.00;;;;;;4864830;29;20042;-67
2021/05/23 06:54:22;;;;;;;7.22;1.88;;;11.90;71.60;;;;;;4864855;29;20025;-68
2021/05/23 06:56:48;;;;;;;6.32;1.58;;;11.80;71.80;;;;;;4869800;29;20370;-68
2021/05/23 06:59:14;;;;;;;5.43;2.20;;;11.80;72.00;;;;;;4864987;29;20037;-68
2021/05/23 07:01:39;;;;;;;4.30;1.60;;;11.80;72.20;;;;;;4876012;29;20080;-68
2021/05/23 07:04:05;;;;;;;7.03;2.25;;;11.70;72.40;;;;;;4871140;29;20075;-67
2021/05/23 07:06:31;;;;;;;6.50;2.75;;;11.70;72.40;;;;;;4866298;29;20033;-67
2021/05/23 07:08:57;;;;;;;5.55;1.75;;;11.60;72.80;;;;;;4881432;29;20127;-67
2021/05/23 07:11:23;;;;;;;6.25;1.80;;;11.60;72.80;;;;;;4853787;29;20037;-68
2021/05/23 07:13:48;;;;;;;6.18;1.85;;;11.70;73.20;;;;;;4875990;29;20025;-67
2021/05/23 07:16:14;;;;;;;6.80;2.40;;;11.70;73.10;;;;;;4878625;29;20127;-68
2021/05/23 07:18:40;;;;;;;6.05;2.05;;;11.70;73.70;;;;;;4864731;29;20022;-67
2021/05/23 07:21:06;;;;;;;6.43;1.80;;;11.80;73.60;;;;;;4864717;29;20045;-68
2021/05/23 07:23:32;;;;;;;4.68;1.52;;;11.90;73.70;;;;;;4865529;29;20045;-67
2021/05/23 07:25:58;;;;;;;4.53;1.42;;;12.20;74.60;;;;;;4864837;29;20061;-68
2021/05/23 07:28:25;;;;;;;5.10;1.50;;;12.70;76.00;;;;;;4864662;29;20108;-67
2021/05/23 07:30:51;;;;;;;6.45;1.48;;;13.30;77.10;;;;;;4864443;29;20034;-67
2021/05/23 07:33:18;;;;;;;5.93;1.48;;;13.90;75.70;;;;;;4865283;29;20054;-68
2021/05/23 07:35:44;;;;;;;7.03;2.10;;;14.50;73.80;;;;;;4869721;29;20030;-68
2021/05/23 07:38:11;;;;;;;5.80;1.25;;;15.20;74.60;;;;;;4869765;29;20026;-68
2021/05/23 07:40:37;;;;;;;5.63;1.20;;;15.60;70.60;;;;;;4869466;29;20021;-67
2021/05/23 07:43:03;;;;;;;4.72;1.42;;;15.80;68.90;;;;;;4870089;29;20045;-67
2021/05/23 07:45:31;;;;;;;3.17;1.00;;;15.70;67.60;;;;;;4869853;29;20517;-67
2021/05/23 07:47:57;;;;;;;3.83;1.00;;;15.60;66.50;;;;;;4865573;29;20029;-67
2021/05/23 07:50:23;;;;;;;4.65;1.30;;;15.50;66.50;;;;;;4864334;29;20029;-67
2021/05/23 07:52:49;;;;;;;3.28;1.55;;;15.50;66.90;;;;;;4864351;29;20032;-68
2021/05/23 07:55:15;;;;;;;3.92;1.05;;;15.50;66.60;;;;;;4876458;29;20025;-67
2021/05/23 07:57:41;;;;;;;4.55;1.25;;;15.50;66.80;;;;;;4882543;29;20040;-68
2021/05/23 08:00:08;;;;;;;4.45;1.70;;;15.70;67.30;;;;;;4882487;29;20037;-68
2021/05/23 08:02:34;;;;;;;3.78;1.20;;;16.00;67.00;;;;;;4870619;29;20108;-67
2021/05/23 08:05:01;;;;;;;3.55;1.20;;;16.50;67.30;;;;;;4868510;29;20509;-67
2021/05/23 08:07:27;;;;;;;5.28;1.10;;;17.10;68.40;;;;;;4867667;29;20029;-68
2021/05/23 08:09:53;;;;;;;3.25;1.10;;;17.80;68.40;;;;;;4868172;29;20038;-67
2021/05/23 08:12:19;;;;;;;4.85;1.35;;;18.40;66.80;;;;;;4867725;29;20037;-68
2021/05/23 08:14:46;;;;;;;3.15;1.10;;;18.90;62.60;;;;;;4867334;29;20033;-67
2021/05/23 08:17:12;;;;;;;4.60;1.00;;;19.30;64.20;;;;;;4866952;29;20029;-67
2021/05/23 08:19:39;;;;;;;3.55;1.00;;;19.70;65.80;;;;;;4867686;29;20041;-68
2021/05/23 08:22:05;;;;;;;3.58;1.27;;;20.10;66.10;;;;;;4872775;29;20033;-67
2021/05/23 08:24:32;;;;;;;3.42;0.80;;;20.40;62.80;;;;;;4873149;29;20485;-68
2021/05/23 08:26:59;;;;;;;2.60;0.80;;;20.80;60.10;;;;;;4850829;29;20033;-68
2021/05/23 08:29:28;;;;;;;3.28;0.82;;;21.10;57.70;;;;;;4874805;29;20033;-68
2021/05/23 08:31:54;;;;;;;4.45;1.02;;;21.40;58.50;;;;;;4868319;29;20064;-67
2021/05/23 08:34:20;;;;;;;3.42;1.05;;;21.80;61.60;;;;;;4868018;29;20082;-68
2021/05/23 08:36:46;;;;;;;3.33;0.90;;;22.00;55.70;;;;;;4867068;29;20497;-68
2021/05/23 08:39:11;;;;;;;4.35;1.42;;;22.10;54.20;;;;;;4867048;29;20033;-68
2021/05/23 08:41:37;;;;;;;3.97;1.02;;;21.90;53.90;;;;;;4867343;29;20038;-68
2021/05/23 08:44:04;;;;;;;5.53;1.58;;;21.50;53.60;;;;;;4880140;29;20037;-68
2021/05/23 08:46:32;;;;;;;5.22;1.17;;;21.00;53.60;;;;;;4885646;29;20089;-68
2021/05/23 08:49:00;;;;;;;3.28;0.82;;;20.90;55.00;;;;;;4867095;29;20029;-68
2021/05/23 08:51:27;;;;;;;3.88;1.15;;;20.60;53.90;;;;;;4866606;29;20029;-68
2021/05/23 08:53:53;;;;;;;5.35;1.25;;;20.10;53.80;;;;;;4868356;29;20594;-68
2021/05/23 08:56:19;;;;;;;2.53;0.80;;;19.60;54.80;;;;;;4875897;29;20022;-68
2021/05/23 08:58:45;;;;;;;3.72;1.00;;;19.10;54.20;;;;;;4867824;29;20485;-68
2021/05/23 09:01:22;;;;;;;3.55;1.10;;;18.50;54.90;;;;;;4850086;29;20173;-68
2021/05/23 09:03:59;;;;;;;3.40;1.20;;;18.10;56.10;;;;;;4870597;29;20045;-68
2021/05/23 09:06:36;;;;;;;4.60;1.17;;;17.70;56.20;;;;;;4866773;29;20029;-68
2021/05/23 09:09:08;;;;;;;3.90;0.98;;;17.30;57.20;;;;;;4871610;29;20496;-68
2021/05/23 09:11:34;;;;;;;4.07;1.00;;;17.00;57.40;;;;;;4877204;29;20034;-68
2021/05/23 09:14:01;;;;;;;4.40;0.90;;;16.80;58.00;;;;;;4866317;29;20029;-68
2021/05/23 09:16:37;;;;;;;3.90;0.88;;;16.70;59.10;;;;;;4866520;29;20024;-68
2021/05/23 09:19:03;;;;;;;3.80;0.90;;;16.60;59.90;;;;;;4876087;29;20021;-68
2021/05/23 09:21:32;;;;;;;3.30;1.20;;;16.60;61.10;;;;;;4881693;29;20172;-68
2021/05/23 09:24:09;;;;;;;5.28;1.48;;;17.30;63.90;;;;;;4869721;29;20034;-68
2021/05/23 09:26:44;;;;;;;4.20;0.95;;;18.50;64.90;;;;;;4866692;29;20166;-68
2021/05/23 09:29:14;;;;;;;4.50;1.30;;;19.70;61.80;;;;;;4866303;29;20029;-68
2021/05/23 09:31:40;;;;;;;4.40;1.05;;;20.50;58.10;;;;;;4884987;29;20036;-68
2021/05/23 09:34:06;;;;;;;3.95;1.10;;;20.60;54.90;;;;;;4880639;29;20028;-68
2021/05/23 09:36:44;;;;;;;3.67;1.30;;;20.50;56.00;;;;;;4871783;29;20030;-68
2021/05/23 09:39:10;;;;;;;4.50;1.30;;;20.60;58.50;;;;;;4872253;29;20028;-68
2021/05/23 09:41:38;;;;;;;4.20;1.20;;;21.00;56.20;;;;;;4889382;29;20036;-68
2021/05/23 09:44:14;;;;;;;3.45;1.20;;;21.50;57.80;;;;;;4866930;29;20117;-68
2021/05/23 09:47:13;;;;;;;3.55;1.02;;;22.10;55.50;;;;;;4884845;29;20420;-69
2021/05/23 09:49:45;;;;;;;4.75;1.20;;;23.00;55.30;;;;;;4856689;29;20044;-67
2021/05/23 09:52:13;;;;;;;4.03;1.27;;;23.20;52.10;;;;;;4879423;29;20025;-67
2021/05/23 09:54:52;;;;;;;4.10;1.38;;;22.80;49.30;;;;;;4884286;29;20033;-67
2021/05/23 09:57:23;;;;;;;4.22;1.27;;;22.10;50.90;;;;;;4882455;29;20025;-67
2021/05/23 09:59:59;;;;;;;6.00;2.05;;;21.60;52.80;;;;;;4880339;29;20060;-67
2021/05/23 10:02:25;;;;;;;6.18;1.92;;;21.70;53.20;;;;;;4881799;29;20400;-67
2021/05/23 10:04:51;;;;;;;5.53;2.13;;;22.00;54.50;;;;;;4881106;29;20049;-67
2021/05/23 10:07:17;;;;;;;5.57;1.80;;;22.50;55.90;;;;;;4884505;29;20044;-67
2021/05/23 10:09:43;;;;;;;4.82;1.92;;;23.30;56.00;;;;;;4865641;29;20119;-67
2021/05/23 10:12:11;;;;;;;7.00;2.50;;;24.20;53.10;;;;;;4879174;29;20029;-66
2021/05/23 10:14:38;;;;;;;3.97;1.73;;;25.00;50.20;;;;;;4879409;29;20423;-67
2021/05/23 10:17:08;;;;;;;4.82;1.00;;;25.70;52.50;;;;;;4883345;29;20488;-67
2021/05/23 10:19:35;;;;;;;4.18;0.90;;;26.40;48.20;;;;;;4879509;29;20082;-67
2021/05/23 10:22:04;;;;;;;3.65;1.00;;;26.90;45.20;;;;;;4878892;29;20073;-67
2021/05/23 10:24:32;;;;;;;3.45;0.73;;;27.10;42.00;;;;;;4865926;29;20029;-67
2021/05/23 10:27:25;;;;;;;3.78;1.00;;;27.40;45.30;;;;;;4880697;29;20511;-67
2021/05/23 10:29:56;;;;;;;3.40;0.80;;;27.60;42.90;;;;;;4878664;29;20523;-67
2021/05/23 10:32:27;;;;;;;2.47;0.80;;;27.80;42.20;;;;;;4865594;29;20061;-67
2021/05/23 10:34:55;;;;;;;2.35;0.65;;;27.80;42.20;;;;;;4882991;29;20036;-67
2021/05/23 10:37:29;;;;;;;4.03;0.95;;;27.70;40.70;;;;;;4879247;29;20029;-67
2021/05/23 10:39:57;;;;;;;2.72;0.80;;;27.10;37.60;;;;;;4880349;29;20026;-67
2021/05/23 10:42:27;;;;;;;3.92;1.30;;;26.20;38.80;;;;;;4875283;29;20382;-66
2021/05/23 10:44:55;;;;;;;3.45;0.75;;;25.30;39.30;;;;;;4869607;29;20040;-67
2021/05/23 10:47:28;;;;;;;4.18;1.02;;;24.80;40.70;;;;;;4880384;29;20032;-67
2021/05/23 10:50:02;;;;;;;3.25;0.95;;;24.90;44.40;;;;;;4877770;29;20029;-67
2021/05/23 10:52:30;;;;;;;4.60;1.23;;;25.30;43.60;;;;;;4876311;29;20039;-66
2021/05/23 10:55:01;;;;;;;4.15;1.00;;;25.50;41.20;;;;;;4879611;29;20400;-67
2021/05/23 10:57:38;;;;;;;2.38;0.90;;;25.20;40.60;;;;;;4881244;29;20021;-67
2021/05/23 11:00:06;;;;;;;3.35;0.90;;;24.60;40.40;;;;;;4876716;29;20033;-67
2021/05/23 11:02:40;;;;;;;4.72;1.08;;;23.90;41.00;;;;;;4880608;29;20025;-67
2021/05/23 11:05:23;;;;;;;3.88;0.95;;;23.20;41.80;;;;;;4885295;29;20418;-68
2021/05/23 11:08:03;;;;;;;3.25;0.77;;;22.70;43.10;;;;;;4879874;29;20033;-67
2021/05/23 11:10:39;;;;;;;1.80;0.70;;;22.20;42.60;;;;;;4874953;29;20049;-67
2021/05/23 11:13:06;;;;;;;4.20;0.73;;;21.90;43.40;;;;;;4875712;29;20041;-67
2021/05/23 11:15:46;;;;;;;2.85;0.70;;;21.80;44.60;;;;;;4872410;29;20533;-67
2021/05/23 11:18:20;;;;;;;2.85;0.73;;;22.00;45.20;;;;;;4897653;29;20078;-67
2021/05/23 11:21:00;;;;;;;2.10;0.68;;;22.20;44.50;;;;;;4877903;29;20021;-67
2021/05/23 11:23:28;;;;;;;2.78;0.60;;;22.70;43.30;;;;;;4873820;29;20455;-67
2021/05/23 11:26:08;;;;;;;3.35;0.60;;;23.10;44.40;;;;;;4880034;29;20052;-68
2021/05/23 11:28:34;;;;;;;3.38;0.80;;;23.40;44.30;;;;;;4874122;29;20036;-69
2021/05/23 11:31:00;;;;;;;4.35;1.15;;;23.40;44.30;;;;;;4873148;29;20042;-67
2021/05/23 11:33:26;;;;;;;3.75;0.90;;;23.30;44.10;;;;;;4872786;29;20589;-68
2021/05/23 11:35:53;;;;;;;2.60;1.08;;;23.30;45.00;;;;;;4865683;29;20030;-68
2021/05/23 11:38:36;;;;;;;3.08;0.80;;;23.20;44.80;;;;;;4867764;29;20026;-68
2021/05/23 11:41:03;;;;;;;3.55;0.85;;;23.00;44.10;;;;;;4876929;29;20030;-68
2021/05/23 11:43:29;;;;;;;3.80;0.90;;;22.70;44.00;;;;;;4878417;29;20041;-68
2021/05/23 11:45:56;;;;;;;4.28;0.90;;;22.30;44.10;;;;;;4885163;29;20045;-68
2021/05/23 11:48:39;;;;;;;4.43;1.40;;;21.90;44.30;;;;;;4872494;29;20437;-67
2021/05/23 11:51:11;;;;;;;5.20;1.23;;;21.40;44.80;;;;;;4883050;29;20406;-68
2021/05/23 11:53:48;;;;;;;6.28;2.15;;;21.10;46.30;;;;;;4873345;29;20025;-67
2021/05/23 11:56:25;;;;;;;3.30;0.82;;;20.70;47.30;;;;;;4868523;29;20082;-67
2021/05/23 11:59:05;;;;;;;3.70;1.10;;;20.50;48.10;;;;;;4867787;29;20031;-67
2021/05/23 12:01:35;;;;;;;3.65;0.95;;;20.50;49.30;;;;;;4874296;29;20040;-67
2021/05/23 12:04:11;;;;;;;3.67;1.00;;;20.70;49.10;;;;;;4879364;29;20580;-67
2021/05/23 12:06:44;;;;;;;3.95;1.35;;;20.90;48.80;;;;;;4878336;29;20037;-67
2021/05/23 12:09:14;;;;;;;3.55;1.30;;;21.10;47.20;;;;;;4873382;29;20033;-67
2021/05/23 12:11:50;;;;;;;3.83;1.08;;;21.10;48.40;;;;;;4872278;29;20038;-67
2021/05/23 12:14:25;;;;;;;5.07;1.08;;;21.20;48.80;;;;;;4867899;29;20025;-67
2021/05/23 12:17:09;;;;;;;5.25;1.23;;;21.30;48.50;;;;;;4880647;29;20054;-67
2021/05/23 12:19:47;;;;;;;4.68;1.08;;;21.20;47.90;;;;;;4879137;29;20530;-67
2021/05/23 12:22:20;;;;;;;6.00;1.30;;;21.00;48.30;;;;;;4857685;29;20098;-67
2021/05/23 12:24:48;;;;;;;3.58;1.00;;;20.70;48.80;;;;;;4878708;29;20408;-67
2021/05/23 12:27:43;;;;;;;4.55;1.27;;;20.60;47.30;;;;;;4894409;29;20127;-67
2021/05/23 12:30:21;;;;;;;3.85;0.80;;;20.50;47.00;;;;;;4870714;29;20117;-68
2021/05/23 12:32:57;;;;;;;3.08;1.08;;;20.40;47.30;;;;;;4866167;29;20097;-67
2021/05/23 12:35:38;;;;;;;4.13;1.15;;;20.20;46.20;;;;;;4867227;29;20501;-68
2021/05/23 12:38:06;;;;;;;3.85;1.42;;;19.90;46.00;;;;;;4872115;29;20383;-68
2021/05/23 12:40:34;;;;;;;3.83;1.10;;;19.80;47.20;;;;;;4877905;29;20025;-67
2021/05/23 12:43:24;;;;;;;3.72;1.13;;;19.80;47.00;;;;;;4872350;29;20056;-68
2021/05/23 12:45:50;;;;;;;4.30;1.10;;;19.90;47.40;;;;;;4872819;29;20049;-68
2021/05/23 12:48:17;;;;;;;4.55;1.00;;;20.00;46.90;;;;;;4866573;29;20033;-68
2021/05/23 12:50:49;;;;;;;6.03;1.90;;;20.10;46.70;;;;;;4867237;29;20108;-67
2021/05/23 12:53:27;;;;;;;3.90;1.00;;;20.10;45.20;;;;;;4856689;29;20044;-67
2021/05/23 12:55:54;;;;;;;3.33;0.90;;;20.00;46.10;;;;;;4871185;29;20045;-67